• Join FlightAware (Why Join?)
  • Login
  • US Flag 
03:59PM EDT


 

Airport Tracker/Info


-or-


 

Live Flight TrackerFlight Track Log ✈ N885PE ✈ 17-Aug-2014 ✈ MYBC / CCZ - KORL

Flight Track Log - Related Links

Times and Time Zones

All times are in EDT time to prevent confusion due to time zone crossing. See the N885PE flight status page for this flight to view local times or setup timezone preferences in your user account.

Time Position Orientation Groundspeed Altitude Reporting Facility
EDT Latitude Longitude Course Direction KTS MPH feet Rate Location/Type
09:28AM 25.5261 -77.9742 311° West 129 148 3,300  Level Miami Center
09:29AM 25.5506 -78.0050 311° West 132 152 4,000 720 Climbing Miami Center
09:30AM 25.5794 -78.0353 317° Northwest 131 151 4,900 780 Climbing Miami Center
09:31AM 25.6064 -78.0642 316° Northwest 132 152 5,600 720 Climbing Miami Center
09:32AM 25.6333 -78.0942 315° West 134 154 6,400 720 Climbing Miami Center
09:33AM 25.6586 -78.1258 312° West 135 155 7,100 720 Climbing Miami Center
09:34AM 25.6872 -78.1589 314° West 136 157 7,900 660 Climbing Miami Center
09:35AM 25.7144 -78.1906 314° West 138 159 8,500 480 Climbing Miami Center
09:36AM 25.7419 -78.2175 319° Northwest 145 167 9,000 480 Climbing Miami Center
09:37AM 25.7775 -78.2447 325° Northwest 151 174 9,500 480 Climbing Miami Center
09:38AM 25.8181 -78.2794 322° Northwest 152 175 10,100 480 Climbing Miami Center
09:39AM 25.8475 -78.3142 313° West 153 176 10,600 480 Climbing Miami Center
09:40AM 25.8747 -78.3497 310° West 153 176 11,200 480 Climbing Miami Center
09:41AM 25.9033 -78.3831 314° West 152 175 11,700 480 Climbing Miami Center
09:42AM 25.9325 -78.4167 314° West 151 174 12,200 480 Climbing Miami Center
09:43AM 25.9592 -78.4483 313° West 146 168 12,700 480 Climbing Miami Center
09:44AM 25.9867 -78.4792 315° West 143 165 13,200 480 Climbing Miami Center
09:45AM 26.0125 -78.5106 312° West 142 163 13,700 420 Climbing Miami Center
09:47AM 26.0389 -78.5400 315° West 138 159 14,100 180 Climbing Miami Center
09:48AM 26.0758 -78.5819 314° West 156 180 14,100  Level Miami Center
09:49AM 26.1069 -78.6183 314° West 159 183 14,100  Level Miami Center
09:50AM 26.1361 -78.6536 313° West 159 183 14,100  Level Miami Center
09:51AM 26.1667 -78.6894 314° West 159 183 14,100  Level Miami Center
09:52AM 26.1969 -78.7250 314° West 158 182 14,100  Level Miami Center
09:53AM 26.2264 -78.7597 313° West 158 182 14,100  Level Miami Center
09:54AM 26.2569 -78.7942 315° West 158 182 14,100  Level Miami Center
09:55AM 26.2875 -78.8297 314° West 158 182 14,100  Level Miami Center
09:56AM 26.3172 -78.8656 313° West 158 182 14,100  Level Miami Center
09:57AM 26.3539 -78.9075 314° West 157 181 14,100  Level Miami Center
09:58AM 26.3839 -78.9431 313° West 157 181 14,100  Level Miami Center
09:59AM 26.4142 -78.9792 313° West 157 181 14,100  Level Miami Center
10:00AM 26.4450 -79.0150 314° West 157 181 14,100  Level Miami Center
10:01AM 26.4758 -79.0514 313° West 159 183 14,100  Level Miami Center
10:02AM 26.5069 -79.0878 314° West 160 184 14,100  Level Miami Center
10:03AM 26.5383 -79.1225 315° West 160 184 14,100  Level Miami Center
10:04AM 26.5706 -79.1569 316° Northwest 160 184 14,100  Level Miami Center
10:05AM 26.6042 -79.1892 319° Northwest 160 184 14,100  Level Miami Center
10:06AM 26.6444 -79.2286 319° Northwest 160 184 14,100  Level Miami Center
10:07AM 26.6783 -79.2608 320° Northwest 160 184 14,100  Level Miami Center
10:08AM 26.7097 -79.2889 321° Northwest 160 184 14,100  Level Miami Center
10:09AM 26.7433 -79.3217 319° Northwest 160 184 14,100  Level Miami Center
10:10AM 26.7836 -79.3594 320° Northwest 160 184 14,100  Level Miami Center
10:11AM 26.8194 -79.3933 320° Northwest 160 184 14,100  Level Miami Center
10:12AM 26.8514 -79.4250 319° Northwest 160 184 14,100  Level Miami Center
10:13AM 26.8794 -79.4658 308° West 160 184 14,100  Level Miami Center
10:14AM 26.9094 -79.5042 311° West 158 182 14,100  Level Miami Center
10:15AM 26.9397 -79.5436 311° West 158 182 14,100  Level Miami Center
10:16AM 26.9711 -79.5828 312° West 159 183 14,100  Level Miami Center
10:17AM 27.0000 -79.6189 312° West 160 184 14,100  Level Miami Center
10:18AM 27.0303 -79.6572 312° West 158 182 14,100  Level Miami Center
10:19AM 27.0597 -79.6964 310° West 158 182 14,100  Level Miami Center
10:20AM 27.0908 -79.7356 312° West 159 183 14,100  Level Miami Center
10:21AM 27.1208 -79.7744 311° West 158 182 14,100  Level Miami Center
10:23AM 27.1492 -79.8097 312° West 158 182 14,100 -60 Level Miami Center
10:24AM 27.1792 -79.8489 311° West 158 182 14,000 -120 Descending Miami Center
10:25AM 27.2131 -79.8867 315° West 162 186 13,900 -180 Descending Miami Center
10:26AM 27.2486 -79.9242 317° Northwest 165 190 13,700 -180 Descending Miami Center
10:27AM 27.2850 -79.9606 318° Northwest 166 191 13,600 -120 Descending Miami Center
10:28AM 27.3178 -79.9931 319° Northwest 166 191 13,500 -120 Descending Miami Center
10:29AM 27.3542 -80.0292 319° Northwest 166 191 13,400 -120 Descending Miami Center
10:30AM 27.3906 -80.0647 319° Northwest 166 191 13,300 -120 Descending Miami Center
10:31AM 27.4258 -80.1006 318° Northwest 165 190 13,200 -120 Descending Miami Center
10:32AM 27.4619 -80.1364 319° Northwest 165 190 13,100 -120 Descending Miami Center
10:33AM 27.4983 -80.1728 318° Northwest 165 190 13,000 -120 Descending Miami Center
10:34AM 27.5319 -80.2058 319° Northwest 165 190 12,900 -120 Descending Miami Center
10:35AM 27.5672 -80.2417 318° Northwest 165 190 12,800 -120 Descending Miami Center
10:36AM 27.6031 -80.2775 318° Northwest 165 190 12,700 -240 Descending Miami Center
10:37AM 27.6383 -80.3164 316° Northwest 168 193 12,400 -300 Descending Miami Center
10:38AM 27.6719 -80.3572 313° West 169 194 12,100 -300 Descending Miami Center
10:39AM 27.7061 -80.3994 312° West 170 196 11,800 -360 Descending Miami Center
10:40AM 27.7400 -80.4425 312° West 174 200 11,400 -420 Descending Miami Center
10:41AM 27.7686 -80.4833 308° West 173 199 11,000 -420 Descending Miami Center
10:42AM 27.8033 -80.5264 312° West 174 200 10,600 -420 Descending Miami Center
10:43AM 27.8442 -80.5617 323° Northwest 175 201 10,200 -480 Descending Miami Center
10:44AM 27.8850 -80.5986 321° Northwest 177 204 9,700 -540 Descending Miami Center
10:45AM 27.9258 -80.6353 322° Northwest 177 204 9,200 -540 Descending Miami Center
10:46AM 27.9672 -80.6725 322° Northwest 179 206 8,700 -540 Descending Miami Center
10:47AM 28.0078 -80.7097 321° Northwest 181 208 8,200 -540 Descending Miami Center
10:48AM 28.0481 -80.7461 321° Northwest 180 207 7,600 -600 Descending Miami Center
10:49AM 28.0833 -80.7833 317° Northwest 176 203 7,000 -600 Descending Orlando TRACON
10:50AM 28.1333 -80.8167 330° Northwest 173 199 6,400 -600 Descending Orlando TRACON
10:51AM 28.1667 -80.8500 319° Northwest 172 198 5,800 -600 Descending Orlando TRACON
10:52AM 28.2000 -80.8833 319° Northwest 170 196 5,200 -600 Descending Orlando TRACON
10:53AM 28.2333 -80.9167 319° Northwest 170 196 4,700 -600 Descending Orlando TRACON
10:54AM 28.2667 -80.9500 319° Northwest 174 200 4,000 -600 Descending Orlando TRACON
10:55AM 28.3167 -80.9667 344° North 173 199 3,500 -600 Descending Orlando TRACON
10:56AM 28.3500 -81.0000 319° Northwest 172 198 2,900 -600 Descending Orlando TRACON
10:57AM 28.3833 -81.0333 319° Northwest 161 185 2,300 -540 Descending Orlando TRACON
10:58AM 28.4167 -81.0667 319° Northwest 162 186 1,900 -300 Descending Orlando TRACON
10:59AM 28.4500 -81.1000 319° Northwest 151 174 1,700 -240 Descending Orlando TRACON
11:00AM 28.4833 -81.1333 319° Northwest 151 174 1,500 -240 Descending Orlando TRACON
11:01AM 28.5167 -81.1667 319° Northwest 152 175 1,300 -240 Descending Orlando TRACON
11:02AM 28.5500 -81.1833 336° Northwest 151 174 1,100 -120 Descending Orlando TRACON
11:03AM 28.5833 -81.2167 319° Northwest 144 166 1,100  Level Orlando TRACON
11:04AM 28.5833 -81.2500 270° West 121 139 1,100 -180 Level Orlando TRACON
11:05AM 28.5667 -81.2833 240° Southwest 95 109 800 -420 Descending Orlando TRACON
11:06AM 28.5500 -81.3000 221° Southwest 83 96 400 -420 Descending Orlando TRACON
11:08AM 28.5455 -81.3329 221° Southwest  Level Estimated